Metar GG30 METAR message from awiacja.imgw.pl Metar G30 EPPO METAR EPPO 240830Z 22006KT 3500 BR BKN001 10/10 Q1013 =